Time;durP1;ratioP1;P1;durP2;ratioP2;P2;SDS_P1;SDS_P2;PMS_P1;PMS_P2;Temp;Humidity;BMP_temperature;BMP_pressure;BME280_temperature;BME280_humidity;BME280_pressure;Samples;Min_cycle;Max_cycle;Signal;HPM_P1;HPM_P2
2021/12/30 00:00:18;;;;;;;67.15;20.73;;;;;;;7.21;100.00;100655.16;2073366;28;45480;-63
2021/12/30 00:01:24;;;;;;;61.70;20.70;;;;;;;7.24;100.00;100675.50;2073978;28;21933;-63
2021/12/30 00:02:29;;;;;;;70.32;19.80;;;;;;;7.24;100.00;100679.06;2072241;28;43513;-63
2021/12/30 00:03:31;;;;;;;65.22;19.17;;;;;;;7.25;100.00;100686.16;2063688;28;45474;-63
2021/12/30 00:04:34;;;;;;;63.13;19.02;;;;;;;7.22;100.00;100690.63;2056287;28;44455;-63
2021/12/30 00:05:38;;;;;;;64.63;20.48;;;;;;;7.21;100.00;100688.84;2071452;28;44141;-63
2021/12/30 00:06:41;;;;;;;67.35;19.48;;;;;;;7.22;100.00;100688.84;2073044;28;32875;-63
2021/12/30 00:07:43;;;;;;;58.67;18.60;;;;;;;7.18;100.00;100689.78;2072063;28;44399;-63
2021/12/30 00:08:46;;;;;;;63.10;18.23;;;;;;;7.17;100.00;100688.03;2064076;28;44293;-63
2021/12/30 00:09:48;;;;;;;60.85;17.60;;;;;;;7.16;100.00;100694.25;2065466;28;20093;-63
2021/12/30 00:10:52;;;;;;;57.28;17.75;;;;;;;7.17;100.00;100687.16;2071972;28;45562;-63
2021/12/30 00:11:54;;;;;;;59.78;18.65;;;;;;;7.20;100.00;100688.00;2071715;28;45313;-63
2021/12/30 00:13:13;;;;;;;57.28;16.75;;;;;;;7.17;100.00;100690.69;2071404;28;43663;-63
2021/12/30 00:14:15;;;;;;;64.70;19.55;;;;;;;7.15;100.00;100696.94;2072439;28;44335;-63
2021/12/30 00:15:16;;;;;;;62.35;18.40;;;;;;;7.17;100.00;100689.81;2072933;28;36230;-63
2021/12/30 00:16:19;;;;;;;60.05;17.88;;;;;;;7.13;100.00;100699.63;2073213;28;43729;-63
2021/12/30 00:17:20;;;;;;;60.70;17.05;;;;;;;7.13;100.00;100702.28;2071955;28;44481;-63
2021/12/30 00:18:23;;;;;;;53.55;17.27;;;;;;;7.21;100.00;100703.09;2071719;28;44753;-63
2021/12/30 00:19:25;;;;;;;51.95;16.25;;;;;;;7.17;100.00;100708.44;2072093;28;45193;-63
2021/12/30 00:20:27;;;;;;;57.28;16.80;;;;;;;7.19;100.00;100710.19;2072527;28;28470;-63
2021/12/30 00:21:29;;;;;;;49.85;16.60;;;;;;;7.21;100.00;100716.38;2072498;28;44535;-63
2021/12/30 00:22:31;;;;;;;51.72;16.33;;;;;;;7.20;100.00;100706.63;2072229;28;45591;-63
2021/12/30 00:23:33;;;;;;;54.20;15.10;;;;;;;7.21;100.00;100703.09;2072335;28;46115;-63
2021/12/30 00:24:35;;;;;;;51.58;16.20;;;;;;;7.22;100.00;100707.50;2071886;28;45173;-63
2021/12/30 00:25:40;;;;;;;52.70;14.35;;;;;;;7.21;100.00;100702.19;2073069;28;30624;-63
2021/12/30 00:26:42;;;;;;;52.65;14.88;;;;;;;7.19;100.00;100717.28;2072276;28;44549;-63
2021/12/30 00:27:44;;;;;;;51.58;13.98;;;;;;;7.22;99.91;100704.81;2073196;28;29509;-63
2021/12/30 00:28:47;;;;;;;50.10;14.00;;;;;;;7.23;100.00;100698.59;2072591;28;30534;-63
2021/12/30 00:29:49;;;;;;;58.10;12.77;;;;;;;7.23;100.00;100711.94;2071076;28;47877;-63
2021/12/30 00:30:52;;;;;;;51.08;13.43;;;;;;;7.28;100.00;100702.97;2071482;28;45158;-63
2021/12/30 00:31:54;;;;;;;51.92;13.40;;;;;;;7.28;100.00;100708.31;2064345;28;33495;-63
2021/12/30 00:32:56;;;;;;;52.63;13.13;;;;;;;7.22;100.00;100720.78;2063786;28;45780;-63
2021/12/30 00:34:00;;;;;;;41.63;12.35;;;;;;;7.24;100.00;100726.09;2064966;28;20050;-63
2021/12/30 00:35:03;;;;;;;43.88;12.70;;;;;;;7.19;100.00;100726.16;2063661;28;46733;-63
2021/12/30 00:36:07;;;;;;;36.45;11.68;;;;;;;7.15;100.00;100724.44;2070616;28;44379;-63
2021/12/30 00:37:09;;;;;;;39.28;11.00;;;;;;;7.14;100.00;100724.44;2071220;28;44683;-63
2021/12/30 00:38:11;;;;;;;40.13;11.27;;;;;;;7.08;100.00;100734.28;2064343;28;43932;-63
2021/12/30 00:39:13;;;;;;;46.00;12.25;;;;;;;7.06;99.95;100730.75;2064830;28;23756;-62
2021/12/30 00:40:14;;;;;;;50.00;12.73;;;;;;;7.10;100.00;100728.94;2063881;28;44757;-63
2021/12/30 00:41:18;;;;;;;54.58;12.43;;;;;;;7.12;100.00;100724.47;2064170;28;45486;-63
2021/12/30 00:42:20;;;;;;;38.70;11.77;;;;;;;7.08;99.89;100717.44;2064066;28;46062;-63
2021/12/30 00:43:21;;;;;;;58.83;12.70;;;;;;;7.11;99.81;100720.06;2071524;28;45447;-63
2021/12/30 00:44:23;;;;;;;50.13;11.85;;;;;;;7.10;100.00;100720.06;2071275;28;46350;-63
2021/12/30 00:45:27;;;;;;;43.42;11.88;;;;;;;7.11;99.88;100717.41;2072695;28;26157;-63
2021/12/30 00:46:32;;;;;;;47.83;11.38;;;;;;;7.06;100.00;100719.22;2073314;28;20045;-63
2021/12/30 00:47:34;;;;;;;44.25;11.50;;;;;;;7.10;100.00;100718.28;2072125;28;44894;-63
2021/12/30 00:48:36;;;;;;;44.83;11.73;;;;;;;7.03;100.00;100721.91;2072398;28;43924;-63
2021/12/30 00:49:40;;;;;;;45.35;12.07;;;;;;;7.06;100.00;100733.41;2071733;28;44016;-63
2021/12/30 00:50:44;;;;;;;43.72;11.43;;;;;;;7.08;100.00;100744.03;2072329;28;43123;-63
2021/12/30 00:51:46;;;;;;;51.58;10.70;;;;;;;7.05;100.00;100744.97;2071834;28;43375;-63
2021/12/30 00:52:48;;;;;;;43.83;11.70;;;;;;;7.03;100.00;100746.78;2071905;28;45929;-63
2021/12/30 00:53:50;;;;;;;53.60;11.55;;;;;;;7.06;100.00;100748.50;2072168;28;28724;-63
2021/12/30 00:54:54;;;;;;;47.65;11.25;;;;;;;7.04;100.00;100747.66;2071175;28;44492;-63
2021/12/30 00:55:55;;;;;;;45.25;10.20;;;;;;;7.02;100.00;100753.00;2071295;28;42297;-63
2021/12/30 00:56:59;;;;;;;43.85;11.20;;;;;;;7.04;100.00;100759.19;2072489;28;45342;-63
2021/12/30 00:58:01;;;;;;;49.08;10.75;;;;;;;7.04;100.00;100763.63;2072202;28;45365;-63
2021/12/30 00:59:05;;;;;;;37.72;9.95;;;;;;;7.03;100.00;100775.16;2072260;28;43851;-63
2021/12/30 01:00:14;;;;;;;41.55;9.88;;;;;;;6.98;100.00;100784.97;2072017;28;45464;-63
2021/12/30 01:01:16;;;;;;;39.83;10.30;;;;;;;7.02;99.89;100789.38;2071858;28;45160;-63
2021/12/30 01:02:20;;;;;;;44.05;10.93;;;;;;;7.03;100.00;100788.47;2071826;28;45322;-63
2021/12/30 01:03:22;;;;;;;49.67;10.85;;;;;;;7.01;100.00;100782.28;2072138;28;45070;-63
2021/12/30 01:04:24;;;;;;;42.38;9.88;;;;;;;6.99;100.00;100786.75;2071240;28;44224;-63
2021/12/30 01:05:26;;;;;;;49.65;10.60;;;;;;;6.98;100.00;100790.28;2063085;28;45707;-63
2021/12/30 01:06:29;;;;;;;48.05;10.23;;;;;;;6.95;100.00;100796.53;2071626;28;29502;-63
2021/12/30 01:07:31;;;;;;;50.63;10.27;;;;;;;6.97;100.00;100794.75;2072231;28;44390;-63
2021/12/30 01:08:33;;;;;;;42.03;10.65;;;;;;;6.95;100.00;100804.53;2072033;28;44468;-63
2021/12/30 01:09:36;;;;;;;50.78;10.15;;;;;;;6.94;100.00;100807.19;2072335;28;43542;-63
2021/12/30 01:10:39;;;;;;;50.40;10.38;;;;;;;6.95;100.00;100801.00;2070981;28;44488;-63
2021/12/30 01:11:41;;;;;;;46.00;9.98;;;;;;;6.99;100.00;100798.28;2073154;28;20547;-63
2021/12/30 01:12:44;;;;;;;49.53;10.68;;;;;;;6.97;100.00;100794.75;2071835;28;45521;-63
2021/12/30 01:13:50;;;;;;;42.83;9.63;;;;;;;6.96;100.00;100784.09;2072349;28;45190;-63
2021/12/30 01:14:52;;;;;;;52.63;11.07;;;;;;;6.93;100.00;100789.47;2072196;28;44367;-63
2021/12/30 01:16:00;;;;;;;33.38;8.75;;;;;;;6.93;100.00;100786.78;2070768;28;44048;-63
2021/12/30 01:17:20;;;;;;;46.50;10.65;;;;;;;6.97;100.00;100793.88;2072670;28;30255;-63
2021/12/30 01:18:43;;;;;;;45.42;8.57;;;;;;;6.91;100.00;100788.59;2072064;28;45183;-63
2021/12/30 01:19:45;;;;;;;37.45;9.55;;;;;;;6.94;100.00;100793.91;2071479;28;46756;-63
2021/12/30 01:20:48;;;;;;;47.28;9.90;;;;;;;6.97;99.80;100799.19;2071819;28;43424;-63
2021/12/30 01:21:53;;;;;;;48.30;9.85;;;;;;;6.96;100.00;100802.75;2071663;28;43898;-63
2021/12/30 01:22:55;;;;;;;54.13;9.98;;;;;;;7.02;100.00;100821.31;2070555;28;44428;-63
2021/12/30 01:23:58;;;;;;;45.08;10.43;;;;;;;7.02;100.00;100824.00;2064030;28;44659;-62
2021/12/30 01:25:01;;;;;;;49.20;10.00;;;;;;;7.04;100.00;100827.50;2064191;28;45582;-63
2021/12/30 01:26:04;;;;;;;51.80;10.32;;;;;;;7.01;100.00;100835.53;2062643;28;46152;-63
2021/12/30 01:27:06;;;;;;;50.40;10.85;;;;;;;7.02;100.00;100826.66;2069555;28;44145;-63
2021/12/30 01:28:10;;;;;;;46.55;9.52;;;;;;;6.99;100.00;100837.31;2071055;28;44087;-63
2021/12/30 01:29:12;;;;;;;52.33;8.98;;;;;;;7.02;100.00;100835.50;2064178;28;44770;-63
2021/12/30 01:30:19;;;;;;;47.08;9.52;;;;;;;6.95;100.00;100831.16;2064244;28;25077;-63
2021/12/30 01:31:20;;;;;;;55.42;9.38;;;;;;;6.94;100.00;100823.16;2063845;28;45867;-63
2021/12/30 01:32:33;;;;;;;42.15;8.68;;;;;;;6.92;100.00;100827.63;2064864;28;20082;-63
2021/12/30 01:33:38;;;;;;;51.38;8.13;;;;;;;6.90;100.00;100829.44;2067655;28;46237;-63
2021/12/30 01:34:40;;;;;;;46.15;8.43;;;;;;;6.90;99.98;100829.44;2072206;28;43147;-63
2021/12/30 01:35:42;;;;;;;46.88;8.82;;;;;;;6.94;100.00;100831.16;2072517;28;31151;-63
2021/12/30 01:36:43;;;;;;;40.35;7.60;;;;;;;6.93;100.00;100832.03;2070985;28;45821;-63
2021/12/30 01:37:45;;;;;;;47.90;9.10;;;;;;;6.95;100.00;100838.25;2072673;28;28226;-63
2021/12/30 01:38:48;;;;;;;44.15;8.15;;;;;;;6.93;100.00;100840.94;2071101;28;45101;-63
2021/12/30 01:39:52;;;;;;;52.20;9.25;;;;;;;6.94;100.00;100842.69;2071309;28;44735;-63
2021/12/30 01:41:00;;;;;;;44.95;9.00;;;;;;;6.98;100.00;100844.44;2070946;28;45593;-63
2021/12/30 01:42:06;;;;;;;50.80;8.90;;;;;;;6.95;100.00;100838.25;2071628;28;45846;-63
2021/12/30 01:43:10;;;;;;;48.30;9.55;;;;;;;6.99;100.00;100843.53;2072765;28;30566;-64
2021/12/30 01:44:12;;;;;;;47.63;8.80;;;;;;;6.97;100.00;100855.09;2071781;28;45597;-64
2021/12/30 01:45:13;;;;;;;47.55;9.07;;;;;;;7.01;100.00;100863.00;2071628;28;44732;-63
2021/12/30 01:46:16;;;;;;;52.55;10.25;;;;;;;7.02;100.00;100861.25;2071472;28;45834;-62
2021/12/30 01:47:17;;;;;;;53.67;10.25;;;;;;;7.00;100.00;100869.25;2072087;28;46713;-63
2021/12/30 01:48:21;;;;;;;54.05;9.70;;;;;;;7.01;100.00;100859.47;2071299;28;34168;-63
2021/12/30 01:49:24;;;;;;;47.30;8.98;;;;;;;6.98;100.00;100862.16;2071302;28;45499;-63
2021/12/30 01:50:26;;;;;;;48.53;8.57;;;;;;;6.94;99.97;100853.31;2072042;28;44831;-62
2021/12/30 01:51:28;;;;;;;46.33;8.95;;;;;;;6.95;100.00;100848.91;2072072;28;23473;-63
2021/12/30 01:52:29;;;;;;;55.17;9.80;;;;;;;6.94;99.99;100847.13;2071786;28;45159;-63
2021/12/30 01:53:34;;;;;;;46.03;8.80;;;;;;;6.93;100.00;100838.28;2071522;28;43389;-63
2021/12/30 01:54:36;;;;;;;45.30;8.77;;;;;;;6.94;100.00;100839.16;2071330;28;38983;-63
2021/12/30 01:55:40;;;;;;;52.38;8.63;;;;;;;6.91;100.00;100842.72;2071347;28;43496;-63
2021/12/30 01:56:42;;;;;;;55.30;9.40;;;;;;;6.92;100.00;100839.16;2071756;28;46706;-63
2021/12/30 01:57:48;;;;;;;51.97;9.13;;;;;;;6.87;100.00;100836.56;2071717;28;45257;-63
2021/12/30 01:58:50;;;;;;;52.53;9.32;;;;;;;6.86;100.00;100834.78;2071141;28;44711;-63
2021/12/30 01:59:52;;;;;;;54.33;10.00;;;;;;;6.90;100.00;100830.31;2072067;28;23074;-63
2021/12/30 02:00:54;;;;;;;50.40;9.27;;;;;;;6.87;100.00;100831.22;2070776;28;46047;-63
2021/12/30 02:01:59;;;;;;;59.97;10.13;;;;;;;6.93;99.91;100832.03;2071934;28;45778;-63
2021/12/30 02:03:03;;;;;;;53.25;10.27;;;;;;;6.90;100.00;100824.97;2071594;28;45271;-63
2021/12/30 02:04:07;;;;;;;57.75;10.57;;;;;;;6.91;100.00;100828.50;2072010;28;43295;-63
2021/12/30 02:05:10;;;;;;;55.40;10.88;;;;;;;6.95;100.00;100832.94;2072471;28;44090;-63
2021/12/30 02:06:12;;;;;;;58.63;11.55;;;;;;;6.99;100.00;100824.00;2067896;28;46575;-63
2021/12/30 02:07:14;;;;;;;65.90;11.65;;;;;;;6.93;100.00;100834.69;2071514;28;44521;-63
2021/12/30 02:08:18;;;;;;;58.92;10.75;;;;;;;6.91;100.00;100842.72;2071676;28;44284;-63
2021/12/30 02:09:21;;;;;;;56.45;10.38;;;;;;;6.93;100.00;100842.69;2071473;28;44458;-63
2021/12/30 02:10:25;;;;;;;70.75;11.95;;;;;;;6.94;100.00;100841.81;2071942;28;20038;-63
2021/12/30 02:11:27;;;;;;;58.10;10.77;;;;;;;6.91;100.00;100833.84;2071099;28;47134;-63
2021/12/30 02:12:37;;;;;;;59.63;10.35;;;;;;;6.96;100.00;100826.69;2071365;28;43545;-62
2021/12/30 02:13:39;;;;;;;64.13;11.40;;;;;;;6.92;100.00;100825.84;2071140;28;45642;-63
2021/12/30 02:14:41;;;;;;;57.45;10.30;;;;;;;6.91;100.00;100826.75;2071853;28;45573;-63
2021/12/30 02:15:43;;;;;;;53.33;10.90;;;;;;;6.91;100.00;100825.84;2071649;28;43438;-63
2021/12/30 02:16:45;;;;;;;66.28;12.10;;;;;;;6.88;100.00;100832.97;2070830;28;35005;-62
2021/12/30 02:17:48;;;;;;;56.45;10.43;;;;;;;6.88;100.00;100837.44;2071321;28;43751;-63
2021/12/30 02:18:53;;;;;;;57.22;10.57;;;;;;;6.90;100.00;100840.06;2070861;28;45555;-63
2021/12/30 02:19:58;;;;;;;70.10;10.90;;;;;;;6.86;100.00;100842.75;2071256;28;44812;-63
2021/12/30 02:21:02;;;;;;;59.05;10.32;;;;;;;6.84;100.00;100851.66;2070941;28;44456;-63
2021/12/30 02:22:04;;;;;;;57.25;9.98;;;;;;;6.80;100.00;100847.25;2071642;28;46554;-63
2021/12/30 02:23:06;;;;;;;66.82;11.27;;;;;;;6.83;100.00;100850.75;2071115;28;43369;-63
2021/12/30 02:24:08;;;;;;;57.72;10.65;;;;;;;6.80;100.00;100860.56;2070710;28;45918;-63
2021/12/30 02:25:10;;;;;;;57.50;10.02;;;;;;;6.77;100.00;100865.91;2062328;28;38430;-63
2021/12/30 02:26:18;;;;;;;61.53;10.40;;;;;;;6.77;100.00;100864.13;2071044;28;44406;-63
2021/12/30 02:27:20;;;;;;;64.97;12.18;;;;;;;6.80;100.00;100866.78;2071657;28;46377;-63
2021/12/30 02:28:26;;;;;;;56.63;9.73;;;;;;;6.76;100.00;100867.69;2071135;28;42178;-63
2021/12/30 02:29:30;;;;;;;60.05;10.55;;;;;;;6.76;100.00;100870.34;2071504;28;45306;-63
2021/12/30 02:30:32;;;;;;;72.20;10.90;;;;;;;6.80;100.00;100877.41;2071700;28;46666;-63
2021/12/30 02:31:34;;;;;;;65.20;10.57;;;;;;;6.76;100.00;100878.31;2071900;28;44719;-63
2021/12/30 02:32:36;;;;;;;46.22;10.00;;;;;;;6.76;100.00;100885.44;2071478;28;45800;-63
2021/12/30 02:33:39;;;;;;;59.75;10.75;;;;;;;6.70;100.00;100878.38;2071588;28;30029;-63
2021/12/30 02:34:41;;;;;;;49.92;9.90;;;;;;;6.73;100.00;100885.44;2071701;28;44313;-63
2021/12/30 02:35:45;;;;;;;59.63;11.27;;;;;;;6.72;100.00;100881.03;2071509;28;45207;-63
2021/12/30 02:36:47;;;;;;;58.10;9.85;;;;;;;6.69;100.00;100873.94;2072301;28;30019;-63
2021/12/30 02:37:50;;;;;;;48.45;9.88;;;;;;;6.68;100.00;100873.06;2071455;28;45801;-63
2021/12/30 02:38:53;;;;;;;62.45;9.68;;;;;;;6.72;100.00;100868.59;2072396;28;20039;-63
2021/12/30 02:39:55;;;;;;;54.67;10.27;;;;;;;6.67;100.00;100871.28;2071667;28;45401;-63
2021/12/30 02:41:00;;;;;;;55.78;10.80;;;;;;;6.68;100.00;100874.84;2071567;28;46257;-63
2021/12/30 02:42:02;;;;;;;66.07;10.85;;;;;;;6.68;100.00;100877.53;2071448;28;45822;-63
2021/12/30 02:43:09;;;;;;;56.75;10.63;;;;;;;6.66;100.00;100866.88;2070571;28;44079;-62
2021/12/30 02:44:16;;;;;;;60.05;9.60;;;;;;;6.60;100.00;100869.56;2069450;28;43543;-63
2021/12/30 02:45:17;;;;;;;55.85;10.35;;;;;;;6.57;100.00;100866.97;2063597;28;43962;-63
2021/12/30 02:46:28;;;;;;;49.97;9.82;;;;;;;6.58;99.95;100867.84;2064198;28;20082;-63
2021/12/30 02:47:33;;;;;;;52.33;10.10;;;;;;;6.56;100.00;100873.16;2064350;28;31320;-63
2021/12/30 02:48:38;;;;;;;58.72;9.45;;;;;;;6.55;100.00;100891.78;2063497;28;45909;-63
2021/12/30 02:49:43;;;;;;;61.03;9.32;;;;;;;6.56;99.92;100894.44;2063594;28;44835;-63
2021/12/30 02:50:49;;;;;;;64.28;10.73;;;;;;;6.58;99.90;100911.28;2062840;28;45535;-63
2021/12/30 02:51:54;;;;;;;59.70;9.45;;;;;;;6.59;100.00;100913.06;2063827;28;21002;-63
2021/12/30 02:52:56;;;;;;;69.75;10.40;;;;;;;6.60;100.00;100922.78;2063461;28;44155;-63
2021/12/30 02:54:02;;;;;;;65.55;10.38;;;;;;;6.58;100.00;100929.03;2063621;28;45547;-63
2021/12/30 02:55:04;;;;;;;56.78;9.48;;;;;;;6.59;100.00;100937.00;2063497;28;45149;-63
2021/12/30 02:56:08;;;;;;;69.50;10.93;;;;;;;6.61;100.00;100939.66;2064221;28;26429;-63
2021/12/30 02:57:10;;;;;;;61.17;9.68;;;;;;;6.61;100.00;100934.31;2063250;28;45724;-63
2021/12/30 02:58:13;;;;;;;54.78;9.32;;;;;;;6.61;99.98;100934.31;2066226;28;46179;-63
2021/12/30 02:59:18;;;;;;;74.25;10.48;;;;;;;6.59;100.00;100931.66;2070856;28;44131;-63
2021/12/30 03:00:20;;;;;;;66.00;9.23;;;;;;;6.61;100.00;100924.56;2071108;28;46445;-63
2021/12/30 03:01:27;;;;;;;71.22;9.48;;;;;;;6.61;100.00;100927.22;2071984;28;25403;-62
2021/12/30 03:02:34;;;;;;;69.00;8.73;;;;;;;6.62;100.00;100930.75;2071030;28;43636;-63
2021/12/30 03:03:36;;;;;;;66.18;9.00;;;;;;;6.65;100.00;100938.72;2070896;28;45191;-63
2021/12/30 03:04:39;;;;;;;64.97;8.88;;;;;;;6.63;100.00;100940.50;2071493;28;44158;-63
2021/12/30 03:05:41;;;;;;;61.17;9.60;;;;;;;6.63;100.00;100953.81;2071670;28;46582;-63
2021/12/30 03:06:43;;;;;;;57.83;9.15;;;;;;;6.67;100.00;100943.13;2071517;28;44666;-63
2021/12/30 03:07:45;;;;;;;66.75;9.25;;;;;;;6.66;100.00;100936.06;2071106;28;45538;-63
2021/12/30 03:08:50;;;;;;;70.32;8.82;;;;;;;6.66;100.00;100935.19;2071523;28;45743;-63
2021/12/30 03:09:51;;;;;;;56.95;8.65;;;;;;;6.65;100.00;100944.03;2071075;28;43396;-63
2021/12/30 03:10:53;;;;;;;72.15;9.20;;;;;;;6.66;100.00;100943.16;2071719;28;31186;-62
2021/12/30 03:11:56;;;;;;;71.18;9.02;;;;;;;6.66;100.00;100948.50;2071042;28;44723;-63
2021/12/30 03:13:07;;;;;;;63.00;8.35;;;;;;;6.62;100.00;100949.38;2063977;28;20161;-63
2021/12/30 03:14:09;;;;;;;49.30;8.20;;;;;;;6.64;100.00;100935.19;2063435;28;44447;-63
2021/12/30 03:15:13;;;;;;;56.67;8.68;;;;;;;6.62;100.00;100933.41;2063689;28;44616;-63
2021/12/30 03:16:23;;;;;;;59.45;8.70;;;;;;;6.64;100.00;100928.97;2070013;28;44440;-63
2021/12/30 03:17:25;;;;;;;52.38;8.90;;;;;;;6.59;100.00;100925.47;2070996;28;45024;-63
2021/12/30 03:18:27;;;;;;;67.93;9.15;;;;;;;6.63;100.00;100932.53;2071133;28;30695;-63
2021/12/30 03:19:28;;;;;;;56.60;8.38;;;;;;;6.61;100.00;100934.31;2071160;28;46594;-63
2021/12/30 03:20:35;;;;;;;60.63;9.45;;;;;;;6.60;100.00;100929.88;2071177;28;20098;-63
2021/12/30 03:21:37;;;;;;;64.70;8.18;;;;;;;6.61;100.00;100915.72;2070895;28;44126;-63
2021/12/30 03:22:42;;;;;;;62.33;7.75;;;;;;;6.58;100.00;100923.69;2070830;28;45795;-63
2021/12/30 03:23:45;;;;;;;64.15;8.25;;;;;;;6.54;100.00;100928.16;2069688;28;45479;-63
2021/12/30 03:24:47;;;;;;;58.25;6.97;;;;;;;6.54;100.00;100932.59;2071168;28;46508;-63
2021/12/30 03:25:49;;;;;;;62.15;7.97;;;;;;;6.56;100.00;100933.47;2071606;28;36481;-63
2021/12/30 03:26:51;;;;;;;65.20;8.43;;;;;;;6.58;99.92;100929.03;2071256;28;45667;-63
2021/12/30 03:27:55;;;;;;;59.72;8.75;;;;;;;6.57;100.00;100933.47;2071544;28;44800;-63
2021/12/30 03:28:59;;;;;;;60.35;8.18;;;;;;;6.56;100.00;100944.09;2069941;28;44216;-63
2021/12/30 03:30:05;;;;;;;73.82;9.50;;;;;;;6.56;100.00;100942.31;2070812;28;45130;-63
2021/12/30 03:31:12;;;;;;;65.07;7.82;;;;;;;6.52;100.00;100945.91;2070950;28;44560;-63
2021/12/30 03:32:14;;;;;;;51.67;8.13;;;;;;;6.49;100.00;100943.25;2071259;28;45931;-63
2021/12/30 03:33:16;;;;;;;61.72;7.35;;;;;;;6.49;100.00;100945.91;2070941;28;45652;-63
2021/12/30 03:34:19;;;;;;;68.78;7.82;;;;;;;6.46;99.85;100940.59;2070385;28;44354;-63
2021/12/30 03:35:20;;;;;;;69.13;7.50;;;;;;;6.49;100.00;100944.13;2070880;28;46293;-62
2021/12/30 03:36:23;;;;;;;61.05;7.72;;;;;;;6.47;99.96;100948.56;2072460;28;29245;-63
2021/12/30 03:37:24;;;;;;;56.97;7.13;;;;;;;6.48;100.00;100947.69;2072139;28;44131;-63
2021/12/30 03:38:33;;;;;;;62.97;7.68;;;;;;;6.45;100.00;100944.19;2072631;28;46494;-63
2021/12/30 03:39:36;;;;;;;61.15;7.93;;;;;;;6.48;100.00;100939.72;2073364;28;26770;-63
2021/12/30 03:40:37;;;;;;;64.75;7.50;;;;;;;6.46;100.00;100932.63;2071564;28;43540;-63
2021/12/30 03:41:40;;;;;;;54.65;6.32;;;;;;;6.44;100.00;100935.31;2072924;28;45783;-63
2021/12/30 03:42:42;;;;;;;70.00;9.05;;;;;;;6.44;100.00;100932.66;2072620;28;44224;-63
2021/12/30 03:43:44;;;;;;;68.68;7.57;;;;;;;6.44;100.00;100935.31;2072946;28;46576;-63
2021/12/30 03:44:46;;;;;;;62.42;7.05;;;;;;;6.47;100.00;100937.06;2072834;28;44484;-63
2021/12/30 03:45:48;;;;;;;63.25;7.60;;;;;;;6.45;100.00;100933.53;2072668;28;45333;-63
2021/12/30 03:46:49;;;;;;;59.05;6.88;;;;;;;6.42;100.00;100933.53;2072776;28;45829;-63
2021/12/30 03:47:52;;;;;;;58.92;7.07;;;;;;;6.39;100.00;100941.53;2072198;28;44475;-63
2021/12/30 03:48:54;;;;;;;57.28;7.88;;;;;;;6.41;100.00;100927.34;2072706;28;44107;-63
2021/12/30 03:49:56;;;;;;;65.28;7.57;;;;;;;6.41;99.81;100931.81;2073374;28;27918;-63
2021/12/30 03:51:04;;;;;;;71.10;7.70;;;;;;;6.41;100.00;100929.13;2072540;28;44159;-63
2021/12/30 03:52:05;;;;;;;59.20;7.57;;;;;;;6.37;100.00;100932.69;2072295;28;45977;-63
2021/12/30 03:53:08;;;;;;;66.15;7.85;;;;;;;6.38;100.00;100930.03;2072810;28;43934;-63
2021/12/30 03:54:09;;;;;;;65.07;7.78;;;;;;;6.37;100.00;100925.63;2071836;28;46283;-63
2021/12/30 03:55:11;;;;;;;58.42;6.88;;;;;;;6.38;100.00;100923.84;2072214;28;45048;-63
2021/12/30 03:56:13;;;;;;;71.05;6.90;;;;;;;6.35;99.87;100922.06;2072023;28;44329;-63
2021/12/30 03:57:15;;;;;;;51.20;6.70;;;;;;;6.37;100.00;100920.28;2072981;28;44674;-63
2021/12/30 03:58:18;;;;;;;80.32;8.48;;;;;;;6.46;100.00;100922.91;2072989;28;45391;-63
2021/12/30 03:59:19;;;;;;;63.83;7.40;;;;;;;6.44;100.00;100921.13;2072524;28;45682;-63
2021/12/30 04:00:24;;;;;;;55.45;8.63;;;;;;;6.45;100.00;100923.78;2072717;28;46300;-63
2021/12/30 04:01:27;;;;;;;66.45;7.57;;;;;;;6.48;100.00;100931.75;2072811;28;43405;-63
2021/12/30 04:02:29;;;;;;;80.25;9.40;;;;;;;6.52;100.00;100918.44;2072339;28;45123;-63
2021/12/30 04:03:31;;;;;;;74.97;8.07;;;;;;;6.48;100.00;100913.13;2073255;28;26547;-64
2021/12/30 04:04:33;;;;;;;75.38;8.32;;;;;;;6.49;100.00;100924.63;2072460;28;45393;-63
2021/12/30 04:05:35;;;;;;;66.05;8.38;;;;;;;6.51;100.00;100928.16;2072639;28;46144;-63
2021/12/30 04:06:37;;;;;;;62.70;8.00;;;;;;;6.55;100.00;100916.63;2073053;28;30168;-63
2021/12/30 04:07:39;;;;;;;61.08;8.73;;;;;;;6.57;100.00;100916.59;2072014;28;45328;-63
2021/12/30 04:08:41;;;;;;;60.55;8.63;;;;;;;6.62;100.00;100914.78;2071824;28;44454;-63
2021/12/30 04:09:43;;;;;;;56.10;8.50;;;;;;;6.62;100.00;100913.03;2072166;28;44079;-63
2021/12/30 04:10:45;;;;;;;63.72;8.30;;;;;;;6.63;100.00;100916.56;2072208;28;44569;-63
2021/12/30 04:11:47;;;;;;;69.78;8.85;;;;;;;6.68;100.00;100922.75;2071949;28;42946;-63
2021/12/30 04:12:52;;;;;;;58.88;8.00;;;;;;;6.72;100.00;100921.81;2072474;28;29166;-63
2021/12/30 04:13:54;;;;;;;61.00;9.43;;;;;;;6.75;100.00;100935.13;2072992;28;44546;-63
2021/12/30 04:14:56;;;;;;;59.20;9.27;;;;;;;6.77;100.00;100935.97;2071787;28;45741;-63
2021/12/30 04:15:58;;;;;;;61.92;9.20;;;;;;;6.81;100.00;100937.72;2071817;28;43940;-63
2021/12/30 04:17:02;;;;;;;69.20;10.48;;;;;;;6.85;100.00;100935.91;2072669;28;20089;-63
2021/12/30 04:18:04;;;;;;;64.88;10.32;;;;;;;6.88;100.00;100936.78;2071778;28;45167;-63
2021/12/30 04:19:06;;;;;;;65.85;9.52;;;;;;;6.90;100.00;100934.09;2071474;28;44767;-63
2021/12/30 04:20:10;;;;;;;63.72;9.80;;;;;;;6.89;100.00;100932.31;2072847;28;45603;-62
2021/12/30 04:21:12;;;;;;;56.97;9.50;;;;;;;6.97;100.00;100926.97;2072698;28;44331;-63
2021/12/30 04:22:18;;;;;;;69.22;10.05;;;;;;;6.98;99.97;100924.28;2072036;28;43112;-63
2021/12/30 04:23:20;;;;;;;70.10;11.23;;;;;;;7.01;100.00;100923.38;2071522;28;44065;-63
2021/12/30 04:24:22;;;;;;;68.57;10.88;;;;;;;7.02;100.00;100919.81;2072420;28;44992;-63
2021/12/30 04:25:24;;;;;;;70.75;11.60;;;;;;;7.04;100.00;100913.56;2071664;28;44369;-63
2021/12/30 04:26:26;;;;;;;70.93;12.85;;;;;;;7.08;100.00;100915.31;2072277;28;30239;-63
2021/12/30 04:27:30;;;;;;;72.63;12.45;;;;;;;7.10;100.00;100909.09;2073006;28;20041;-63
2021/12/30 04:28:34;;;;;;;66.53;12.38;;;;;;;7.14;100.00;100903.75;2070860;28;45440;-63
2021/12/30 04:29:36;;;;;;;71.32;13.45;;;;;;;7.16;100.00;100912.59;2072736;28;45980;-63
2021/12/30 04:30:38;;;;;;;73.63;13.95;;;;;;;7.20;99.95;100914.31;2072479;28;45309;-63
2021/12/30 04:31:42;;;;;;;68.72;12.07;;;;;;;7.18;100.00;100916.13;2071596;28;44918;-63
2021/12/30 04:32:44;;;;;;;73.45;13.52;;;;;;;7.23;99.82;100908.06;2071821;28;43695;-63
2021/12/30 04:33:46;;;;;;;81.72;14.90;;;;;;;7.23;100.00;100898.31;2071610;28;44330;-63
2021/12/30 04:34:48;;;;;;;55.33;13.75;;;;;;;7.25;99.95;100903.63;2072918;28;28299;-63
2021/12/30 04:35:55;;;;;;;70.50;15.00;;;;;;;7.27;100.00;100899.19;2073051;28;20137;-63
2021/12/30 04:36:59;;;;;;;82.40;14.60;;;;;;;7.28;100.00;100897.38;2071855;28;45132;-63
2021/12/30 04:38:01;;;;;;;80.50;15.68;;;;;;;7.28;99.87;100905.38;2072396;28;44814;-63
2021/12/30 04:39:04;;;;;;;69.22;13.95;;;;;;;7.29;100.00;100893.84;2072632;28;43388;-63
2021/12/30 04:40:07;;;;;;;55.58;12.65;;;;;;;7.30;99.76;100887.59;2072309;28;45986;-63
2021/12/30 04:41:09;;;;;;;59.33;14.07;;;;;;;7.30;100.00;100891.13;2071490;28;43899;-63
2021/12/30 04:42:10;;;;;;;66.88;15.65;;;;;;;7.34;99.68;100899.97;2072384;28;46785;-63
2021/12/30 04:43:12;;;;;;;75.45;16.15;;;;;;;7.35;99.86;100912.41;2073021;28;44800;-63
2021/12/30 04:44:14;;;;;;;80.60;15.85;;;;;;;7.36;99.66;100904.41;2072024;28;45124;-63
2021/12/30 04:45:16;;;;;;;63.75;14.02;;;;;;;7.35;99.73;100912.41;2071999;28;46486;-63
2021/12/30 04:46:20;;;;;;;81.95;16.30;;;;;;;7.36;100.00;100917.72;2073274;28;20124;-62
2021/12/30 04:47:23;;;;;;;63.90;14.25;;;;;;;7.36;99.81;100920.38;2072464;28;44612;-63
2021/12/30 04:48:24;;;;;;;68.05;14.65;;;;;;;7.37;99.64;100916.81;2071599;28;45700;-63
2021/12/30 04:49:27;;;;;;;77.65;16.98;;;;;;;7.41;99.56;100907.00;2072275;28;44193;-63